KLWT/LWT METAR and TAF weather

Enter ICAO airport designator
Station Type Date Time Source
KLWT METAR 2022/06/27 08:54 UTC NOAA

KLWT 270854Z AUTO 12005KT CLR 08/04 A3024 RMK AO2 SLP219 T00830039 55002 $


Station Type Date Time Source
KLWT Decoded METAR 2022/06/27 08:54 UTC NOAA

LEWISTOWN MUNICIPAL AIRPORT , MT, United States (KLWT) 47-03N 109-27W
Jun 27, 2022 - 04:54 AM EDT / 2022.06.27 0854 UTC
Wind: from the ESE (120 degrees) at 6 MPH (5 KT):0
Sky conditions: clear
Temperature: 46.9 F (8.3 C)
Dew Point: 39.0 F (3.9 C)
Relative Humidity: 73%
Pressure (altimeter): 30.24 in. Hg (1024 hPa)
Pressure tendency: 0.01 inches (0.2 hPa) lower than three hours ago
ob: KLWT 270854Z AUTO 12005KT CLR 08/04 A3024 RMK AO2 SLP219 T00830039 55002
cycle: 9

Station Type Date Time Source
KLWT TAF 2022/06/27 06:22 UTC NOAA

TAF KLWT 270520Z 2706/2806 VRB06KT P6SM SKC

Example: see airport list